sensor_id;sensor_type;location;lat;lon;timestamp;pressure;altitude;pressure_sealevel;temperature;humidity
12879;BME280;20617;49.476;10.986;2023-07-09T00:00:13;98531.28;;;24.95;100.00
12879;BME280;20617;49.476;10.986;2023-07-09T00:02:20;98540.03;;;24.87;100.00
12879;BME280;20617;49.476;10.986;2023-07-09T00:04:25;98542.97;;;24.84;100.00
12879;BME280;20617;49.476;10.986;2023-07-09T00:06:30;98535.56;;;24.78;100.00
12879;BME280;20617;49.476;10.986;2023-07-09T00:08:38;98534.19;;;24.74;100.00
12879;BME280;20617;49.476;10.986;2023-07-09T00:10:48;98537.28;;;24.69;100.00
12879;BME280;20617;49.476;10.986;2023-07-09T00:12:53;98544.03;;;24.63;100.00
12879;BME280;20617;49.476;10.986;2023-07-09T00:15:01;98536.34;;;24.60;100.00
12879;BME280;20617;49.476;10.986;2023-07-09T00:17:09;98541.84;;;24.59;100.00
12879;BME280;20617;49.476;10.986;2023-07-09T00:19:16;98543.38;;;24.61;100.00
12879;BME280;20617;49.476;10.986;2023-07-09T00:21:22;98536.91;;;24.64;100.00
12879;BME280;20617;49.476;10.986;2023-07-09T00:23:31;98541.09;;;24.67;100.00
12879;BME280;20617;49.476;10.986;2023-07-09T00:25:37;98537.47;;;24.68;100.00
12879;BME280;20617;49.476;10.986;2023-07-09T00:27:48;98536.63;;;24.67;100.00
12879;BME280;20617;49.476;10.986;2023-07-09T00:29:53;98545.75;;;24.65;100.00
12879;BME280;20617;49.476;10.986;2023-07-09T00:32:01;98542.91;;;24.66;100.00
12879;BME280;20617;49.476;10.986;2023-07-09T00:34:06;98534.56;;;24.61;100.00
12879;BME280;20617;49.476;10.986;2023-07-09T00:36:16;98541.84;;;24.59;100.00
12879;BME280;20617;49.476;10.986;2023-07-09T00:38:24;98547.00;;;24.60;100.00
12879;BME280;20617;49.476;10.986;2023-07-09T00:40:29;98539.19;;;24.59;100.00
12879;BME280;20617;49.476;10.986;2023-07-09T00:42:34;98542.97;;;24.56;100.00
12879;BME280;20617;49.476;10.986;2023-07-09T00:44:41;98545.91;;;24.53;100.00
12879;BME280;20617;49.476;10.986;2023-07-09T00:49:28;98554.19;;;24.50;100.00
12879;BME280;20617;49.476;10.986;2023-07-09T00:51:34;98549.47;;;24.44;100.00
12879;BME280;20617;49.476;10.986;2023-07-09T00:53:45;98545.97;;;24.44;100.00
12879;BME280;20617;49.476;10.986;2023-07-09T00:55:55;98552.25;;;24.43;100.00
12879;BME280;20617;49.476;10.986;2023-07-09T00:58:09;98549.31;;;24.36;100.00
12879;BME280;20617;49.476;10.986;2023-07-09T01:00:23;98551.72;;;24.29;100.00
12879;BME280;20617;49.476;10.986;2023-07-09T01:02:27;98551.31;;;24.24;100.00
12879;BME280;20617;49.476;10.986;2023-07-09T01:04:32;98541.50;;;24.25;100.00
12879;BME280;20617;49.476;10.986;2023-07-09T01:06:43;98550.47;;;24.24;100.00
12879;BME280;20617;49.476;10.986;2023-07-09T01:08:49;98551.72;;;24.20;100.00
12879;BME280;20617;49.476;10.986;2023-07-09T01:10:56;98549.50;;;24.15;100.00
12879;BME280;20617;49.476;10.986;2023-07-09T01:13:02;98550.63;;;24.12;100.00
12879;BME280;20617;49.476;10.986;2023-07-09T01:15:08;98542.94;;;24.09;100.00
12879;BME280;20617;49.476;10.986;2023-07-09T01:17:17;98549.50;;;24.05;100.00
12879;BME280;20617;49.476;10.986;2023-07-09T01:19:23;98548.25;;;24.00;100.00
12879;BME280;20617;49.476;10.986;2023-07-09T01:21:33;98548.28;;;23.90;100.00
12879;BME280;20617;49.476;10.986;2023-07-09T01:23:38;98548.16;;;23.82;100.00
12879;BME280;20617;49.476;10.986;2023-07-09T01:25:46;98544.81;;;23.80;100.00
12879;BME280;20617;49.476;10.986;2023-07-09T01:27:54;98552.78;;;23.80;100.00
12879;BME280;20617;49.476;10.986;2023-07-09T01:30:01;98554.28;;;23.82;100.00
12879;BME280;20617;49.476;10.986;2023-07-09T01:32:08;98549.97;;;23.81;100.00
12879;BME280;20617;49.476;10.986;2023-07-09T01:34:14;98557.94;;;23.81;100.00
12879;BME280;20617;49.476;10.986;2023-07-09T01:36:21;98553.91;;;23.77;100.00
12879;BME280;20617;49.476;10.986;2023-07-09T01:38:29;98561.16;;;23.75;100.00
12879;BME280;20617;49.476;10.986;2023-07-09T01:40:32;98564.34;;;23.69;100.00
12879;BME280;20617;49.476;10.986;2023-07-09T01:42:40;98561.97;;;23.66;100.00
12879;BME280;20617;49.476;10.986;2023-07-09T01:44:45;98565.75;;;23.63;100.00
12879;BME280;20617;49.476;10.986;2023-07-09T01:46:51;98557.34;;;23.58;100.00
12879;BME280;20617;49.476;10.986;2023-07-09T01:48:56;98560.00;;;23.58;100.00
12879;BME280;20617;49.476;10.986;2023-07-09T01:51:01;98555.81;;;23.56;100.00
12879;BME280;20617;49.476;10.986;2023-07-09T01:53:06;98557.63;;;23.55;100.00
12879;BME280;20617;49.476;10.986;2023-07-09T01:55:18;98563.50;;;23.59;100.00
12879;BME280;20617;49.476;10.986;2023-07-09T01:57:27;98566.16;;;23.59;100.00
12879;BME280;20617;49.476;10.986;2023-07-09T01:59:36;98565.19;;;23.60;100.00
12879;BME280;20617;49.476;10.986;2023-07-09T02:01:43;98567.16;;;23.58;100.00
12879;BME280;20617;49.476;10.986;2023-07-09T02:03:48;98568.53;;;23.52;100.00
12879;BME280;20617;49.476;10.986;2023-07-09T02:05:53;98576.78;;;23.39;100.00
12879;BME280;20617;49.476;10.986;2023-07-09T02:07:59;98573.97;;;23.31;100.00
12879;BME280;20617;49.476;10.986;2023-07-09T02:10:02;98569.91;;;23.27;100.00
12879;BME280;20617;49.476;10.986;2023-07-09T02:12:11;98568.38;;;23.24;100.00
12879;BME280;20617;49.476;10.986;2023-07-09T02:14:17;98571.03;;;23.24;100.00
12879;BME280;20617;49.476;10.986;2023-07-09T02:16:19;98569.06;;;23.26;100.00
12879;BME280;20617;49.476;10.986;2023-07-09T02:18:25;98572.72;;;23.25;100.00
12879;BME280;20617;49.476;10.986;2023-07-09T02:20:30;98568.50;;;23.23;100.00
12879;BME280;20617;49.476;10.986;2023-07-09T02:22:36;98564.72;;;23.16;100.00
12879;BME280;20617;49.476;10.986;2023-07-09T02:24:41;98558.00;;;23.12;100.00
12879;BME280;20617;49.476;10.986;2023-07-09T02:26:46;98566.38;;;23.07;100.00
12879;BME280;20617;49.476;10.986;2023-07-09T02:28:54;98568.88;;;22.99;100.00
12879;BME280;20617;49.476;10.986;2023-07-09T02:30:59;98570.22;;;22.93;100.00
12879;BME280;20617;49.476;10.986;2023-07-09T02:33:05;98573.72;;;22.94;100.00
12879;BME280;20617;49.476;10.986;2023-07-09T02:35:13;98566.03;;;22.91;100.00
12879;BME280;20617;49.476;10.986;2023-07-09T02:37:19;98572.31;;;22.90;100.00
12879;BME280;20617;49.476;10.986;2023-07-09T02:39:25;98570.34;;;22.92;100.00
12879;BME280;20617;49.476;10.986;2023-07-09T02:41:34;98566.72;;;22.93;100.00
12879;BME280;20617;49.476;10.986;2023-07-09T02:43:36;98576.38;;;22.94;100.00
12879;BME280;20617;49.476;10.986;2023-07-09T02:45:44;98575.13;;;22.98;100.00
12879;BME280;20617;49.476;10.986;2023-07-09T02:47:49;98575.13;;;22.98;100.00
12879;BME280;20617;49.476;10.986;2023-07-09T02:49:55;98581.16;;;23.00;100.00
12879;BME280;20617;49.476;10.986;2023-07-09T02:52:05;98583.38;;;22.95;100.00
12879;BME280;20617;49.476;10.986;2023-07-09T02:54:08;98583.75;;;22.90;100.00
12879;BME280;20617;49.476;10.986;2023-07-09T02:56:13;98579.00;;;22.84;100.00
12879;BME280;20617;49.476;10.986;2023-07-09T02:58:18;98581.59;;;22.74;100.00
12879;BME280;20617;49.476;10.986;2023-07-09T03:00:25;98583.69;;;22.71;100.00
12879;BME280;20617;49.476;10.986;2023-07-09T03:02:34;98576.13;;;22.66;100.00
12879;BME280;20617;49.476;10.986;2023-07-09T03:04:39;98585.06;;;22.65;100.00
12879;BME280;20617;49.476;10.986;2023-07-09T03:06:44;98594.38;;;22.59;100.00
12879;BME280;20617;49.476;10.986;2023-07-09T03:08:50;98591.63;;;22.61;100.00
12879;BME280;20617;49.476;10.986;2023-07-09T03:10:53;98592.34;;;22.63;100.00
12879;BME280;20617;49.476;10.986;2023-07-09T03:12:59;98591.34;;;22.64;100.00
12879;BME280;20617;49.476;10.986;2023-07-09T03:15:05;98594.84;;;22.65;100.00
12879;BME280;20617;49.476;10.986;2023-07-09T03:17:11;98588.25;;;22.59;100.00
12879;BME280;20617;49.476;10.986;2023-07-09T03:19:19;98594.84;;;22.65;100.00
12879;BME280;20617;49.476;10.986;2023-07-09T03:21:25;98595.81;;;22.64;100.00
12879;BME280;20617;49.476;10.986;2023-07-09T03:23:27;98585.47;;;22.60;100.00
12879;BME280;20617;49.476;10.986;2023-07-09T03:25:32;98594.91;;;22.53;100.00
12879;BME280;20617;49.476;10.986;2023-07-09T03:27:37;98594.09;;;22.53;100.00
12879;BME280;20617;49.476;10.986;2023-07-09T03:29:42;98595.63;;;22.55;100.00
12879;BME280;20617;49.476;10.986;2023-07-09T03:31:47;98601.66;;;22.57;100.00
12879;BME280;20617;49.476;10.986;2023-07-09T03:33:52;98606.50;;;22.52;100.00
12879;BME280;20617;49.476;10.986;2023-07-09T03:35:58;98607.72;;;22.48;100.00
12879;BME280;20617;49.476;10.986;2023-07-09T03:38:03;98601.59;;;22.48;100.00
12879;BME280;20617;49.476;10.986;2023-07-09T03:40:09;98613.28;;;22.45;100.00
12879;BME280;20617;49.476;10.986;2023-07-09T03:42:14;98606.69;;;22.40;100.00
12879;BME280;20617;49.476;10.986;2023-07-09T03:44:19;98612.25;;;22.36;100.00
12879;BME280;20617;49.476;10.986;2023-07-09T03:46:27;98606.84;;;22.38;100.00
12879;BME280;20617;49.476;10.986;2023-07-09T03:48:32;98616.63;;;22.37;100.00
12879;BME280;20617;49.476;10.986;2023-07-09T03:50:36;98614.59;;;22.30;100.00
12879;BME280;20617;49.476;10.986;2023-07-09T03:52:41;98610.97;;;22.31;100.00
12879;BME280;20617;49.476;10.986;2023-07-09T03:54:47;98612.53;;;22.33;100.00
12879;BME280;20617;49.476;10.986;2023-07-09T03:56:51;98611.84;;;22.31;100.00
12879;BME280;20617;49.476;10.986;2023-07-09T03:58:57;98615.91;;;22.35;100.00
12879;BME280;20617;49.476;10.986;2023-07-09T04:01:02;98613.81;;;22.39;100.00
12879;BME280;20617;49.476;10.986;2023-07-09T04:03:07;98616.47;;;22.39;100.00
12879;BME280;20617;49.476;10.986;2023-07-09T04:05:13;98621.66;;;22.41;100.00
12879;BME280;20617;49.476;10.986;2023-07-09T04:07:19;98616.81;;;22.46;100.00
12879;BME280;20617;49.476;10.986;2023-07-09T04:09:30;98614.16;;;22.46;100.00
12879;BME280;20617;49.476;10.986;2023-07-09T04:11:35;98622.13;;;22.46;100.00
12879;BME280;20617;49.476;10.986;2023-07-09T04:13:40;98617.75;;;22.45;100.00
12879;BME280;20617;49.476;10.986;2023-07-09T04:15:45;98616.94;;;22.44;100.00
12879;BME280;20617;49.476;10.986;2023-07-09T04:17:50;98625.28;;;22.40;100.00
12879;BME280;20617;49.476;10.986;2023-07-09T04:19:54;98626.41;;;22.37;100.00
12879;BME280;20617;49.476;10.986;2023-07-09T04:22:00;98626.63;;;22.34;100.00
12879;BME280;20617;49.476;10.986;2023-07-09T04:24:05;98623.84;;;22.35;100.00
12879;BME280;20617;49.476;10.986;2023-07-09T04:26:14;98629.88;;;22.37;100.00
12879;BME280;20617;49.476;10.986;2023-07-09T04:28:19;98631.81;;;22.35;100.00
12879;BME280;20617;49.476;10.986;2023-07-09T04:30:28;98633.47;;;22.36;100.00
12879;BME280;20617;49.476;10.986;2023-07-09T04:32:33;98633.22;;;22.40;100.00
12879;BME280;20617;49.476;10.986;2023-07-09T04:34:38;98631.09;;;22.33;100.00
12879;BME280;20617;49.476;10.986;2023-07-09T04:36:43;98628.19;;;22.36;100.00
12879;BME280;20617;49.476;10.986;2023-07-09T04:38:48;98630.72;;;22.38;100.00
12879;BME280;20617;49.476;10.986;2023-07-09T04:40:53;98627.50;;;22.34;100.00
12879;BME280;20617;49.476;10.986;2023-07-09T04:43:00;98618.03;;;22.42;100.00
12879;BME280;20617;49.476;10.986;2023-07-09T04:45:07;98628.94;;;22.48;100.00
12879;BME280;20617;49.476;10.986;2023-07-09T04:47:13;98637.50;;;22.52;100.00
12879;BME280;20617;49.476;10.986;2023-07-09T04:49:18;98629.28;;;22.55;100.00
12879;BME280;20617;49.476;10.986;2023-07-09T04:51:26;98627.59;;;22.54;100.00
12879;BME280;20617;49.476;10.986;2023-07-09T04:53:31;98636.25;;;22.56;100.00
12879;BME280;20617;49.476;10.986;2023-07-09T04:55:36;98622.16;;;22.55;100.00
12879;BME280;20617;49.476;10.986;2023-07-09T04:57:41;98625.53;;;22.57;100.00
12879;BME280;20617;49.476;10.986;2023-07-09T04:59:49;98626.81;;;22.63;100.00
12879;BME280;20617;49.476;10.986;2023-07-09T05:01:55;98633.53;;;22.67;100.00
12879;BME280;20617;49.476;10.986;2023-07-09T05:04:00;98627.69;;;22.73;100.00
12879;BME280;20617;49.476;10.986;2023-07-09T05:06:06;98625.75;;;22.75;100.00
12879;BME280;20617;49.476;10.986;2023-07-09T05:08:10;98620.44;;;22.75;100.00
12879;BME280;20617;49.476;10.986;2023-07-09T05:10:18;98623.53;;;22.80;100.00
12879;BME280;20617;49.476;10.986;2023-07-09T05:12:26;98633.22;;;22.91;100.00
12879;BME280;20617;49.476;10.986;2023-07-09T05:14:31;98633.81;;;22.95;100.00
12879;BME280;20617;49.476;10.986;2023-07-09T05:16:40;98637.91;;;22.99;100.00
12879;BME280;20617;49.476;10.986;2023-07-09T05:18:45;98639.72;;;22.98;100.00
12879;BME280;20617;49.476;10.986;2023-07-09T05:20:50;98631.34;;;23.03;100.00
12879;BME280;20617;49.476;10.986;2023-07-09T05:22:55;98632.34;;;23.02;100.00
12879;BME280;20617;49.476;10.986;2023-07-09T05:24:57;98632.06;;;23.05;100.00
12879;BME280;20617;49.476;10.986;2023-07-09T05:27:02;98641.84;;;23.04;100.00
12879;BME280;20617;49.476;10.986;2023-07-09T05:29:07;98638.09;;;23.07;100.00
12879;BME280;20617;49.476;10.986;2023-07-09T05:31:12;98638.09;;;23.17;100.00
12879;BME280;20617;49.476;10.986;2023-07-09T05:33:20;98637.44;;;23.24;100.00
12879;BME280;20617;49.476;10.986;2023-07-09T05:35:27;98631.84;;;23.27;100.00
12879;BME280;20617;49.476;10.986;2023-07-09T05:37:32;98638.44;;;23.33;100.00
12879;BME280;20617;49.476;10.986;2023-07-09T05:39:37;98646.81;;;23.38;100.00
12879;BME280;20617;49.476;10.986;2023-07-09T05:41:42;98638.75;;;23.49;100.00
12879;BME280;20617;49.476;10.986;2023-07-09T05:43:49;98640.44;;;23.50;100.00
12879;BME280;20617;49.476;10.986;2023-07-09T05:45:55;98643.22;;;23.59;100.00
12879;BME280;20617;49.476;10.986;2023-07-09T05:48:00;98642.19;;;23.71;100.00
12879;BME280;20617;49.476;10.986;2023-07-09T05:50:10;98638.53;;;23.82;100.00
12879;BME280;20617;49.476;10.986;2023-07-09T05:52:15;98637.56;;;23.92;100.00
12879;BME280;20617;49.476;10.986;2023-07-09T05:54:20;98638.56;;;23.91;100.00
12879;BME280;20617;49.476;10.986;2023-07-09T05:56:27;98641.78;;;23.95;100.00
12879;BME280;20617;49.476;10.986;2023-07-09T05:58:33;98642.59;;;24.05;100.00
12879;BME280;20617;49.476;10.986;2023-07-09T06:00:35;98641.63;;;24.16;100.00
12879;BME280;20617;49.476;10.986;2023-07-09T06:02:43;98639.66;;;24.28;100.00
12879;BME280;20617;49.476;10.986;2023-07-09T06:04:50;98640.63;;;24.36;100.00
12879;BME280;20617;49.476;10.986;2023-07-09T06:07:00;98637.53;;;24.41;100.00
12879;BME280;20617;49.476;10.986;2023-07-09T06:09:05;98644.97;;;24.47;100.00
12879;BME280;20617;49.476;10.986;2023-07-09T06:11:11;98645.09;;;24.55;100.00
12879;BME280;20617;49.476;10.986;2023-07-09T06:13:16;98644.91;;;24.67;100.00
12879;BME280;20617;49.476;10.986;2023-07-09T06:15:23;98641.41;;;24.76;100.00
12879;BME280;20617;49.476;10.986;2023-07-09T06:17:28;98648.81;;;24.82;100.00
12879;BME280;20617;49.476;10.986;2023-07-09T06:19:33;98648.66;;;24.83;100.00
12879;BME280;20617;49.476;10.986;2023-07-09T06:21:38;98646.09;;;24.92;100.00
12879;BME280;20617;49.476;10.986;2023-07-09T06:23:47;98645.91;;;25.03;100.00
12879;BME280;20617;49.476;10.986;2023-07-09T06:25:52;98642.53;;;25.11;100.00
12879;BME280;20617;49.476;10.986;2023-07-09T06:28:00;98642.28;;;25.14;100.00
12879;BME280;20617;49.476;10.986;2023-07-09T06:30:07;98647.66;;;25.22;99.41
12879;BME280;20617;49.476;10.986;2023-07-09T06:32:12;98650.31;;;25.32;99.27
12879;BME280;20617;49.476;10.986;2023-07-09T06:34:17;98648.31;;;25.34;98.90
12879;BME280;20617;49.476;10.986;2023-07-09T06:36:22;98652.78;;;25.43;98.09
12879;BME280;20617;49.476;10.986;2023-07-09T06:38:28;98653.53;;;25.53;96.95
12879;BME280;20617;49.476;10.986;2023-07-09T06:40:36;98660.19;;;25.67;96.61
12879;BME280;20617;49.476;10.986;2023-07-09T06:42:41;98656.31;;;25.79;96.44
12879;BME280;20617;49.476;10.986;2023-07-09T06:45:00;98656.97;;;25.91;95.34
12879;BME280;20617;49.476;10.986;2023-07-09T06:47:06;98665.56;;;26.03;94.50
12879;BME280;20617;49.476;10.986;2023-07-09T06:49:11;98668.00;;;26.14;94.04
12879;BME280;20617;49.476;10.986;2023-07-09T06:51:16;98667.38;;;26.20;93.53
12879;BME280;20617;49.476;10.986;2023-07-09T06:53:25;98668.09;;;26.22;92.46
12879;BME280;20617;49.476;10.986;2023-07-09T06:55:31;98667.16;;;26.31;92.42
12879;BME280;20617;49.476;10.986;2023-07-09T06:57:38;98666.41;;;26.39;92.03
12879;BME280;20617;49.476;10.986;2023-07-09T06:59:43;98666.75;;;26.44;91.24
12879;BME280;20617;49.476;10.986;2023-07-09T07:01:49;98663.19;;;26.53;90.87
12879;BME280;20617;49.476;10.986;2023-07-09T07:03:56;98663.47;;;26.68;92.08
12879;BME280;20617;49.476;10.986;2023-07-09T07:06:04;98666.84;;;26.78;91.51
12879;BME280;20617;49.476;10.986;2023-07-09T07:08:09;98660.56;;;26.87;91.02
12879;BME280;20617;49.476;10.986;2023-07-09T07:10:14;98658.25;;;26.93;91.51
12879;BME280;20617;49.476;10.986;2023-07-09T07:12:26;98654.97;;;27.07;90.74
12879;BME280;20617;49.476;10.986;2023-07-09T07:14:34;98657.22;;;27.20;90.38
12879;BME280;20617;49.476;10.986;2023-07-09T07:16:37;98660.13;;;27.26;90.38
12879;BME280;20617;49.476;10.986;2023-07-09T07:18:42;98657.13;;;27.29;90.43
12879;BME280;20617;49.476;10.986;2023-07-09T07:20:49;98662.84;;;27.35;91.80
12879;BME280;20617;49.476;10.986;2023-07-09T07:22:54;98652.50;;;27.48;91.69
12879;BME280;20617;49.476;10.986;2023-07-09T07:24:59;98650.88;;;27.55;90.52
12879;BME280;20617;49.476;10.986;2023-07-09T07:27:05;98651.72;;;27.64;91.19
12879;BME280;20617;49.476;10.986;2023-07-09T07:29:10;98646.22;;;27.73;91.12
12879;BME280;20617;49.476;10.986;2023-07-09T07:31:17;98650.09;;;27.79;90.57
12879;BME280;20617;49.476;10.986;2023-07-09T07:33:22;98651.28;;;27.85;91.24
12879;BME280;20617;49.476;10.986;2023-07-09T07:35:27;98648.44;;;27.94;90.74
12879;BME280;20617;49.476;10.986;2023-07-09T07:37:32;98646.13;;;28.08;89.67
12879;BME280;20617;49.476;10.986;2023-07-09T07:39:34;98653.84;;;28.19;89.36
12879;BME280;20617;49.476;10.986;2023-07-09T07:41:39;98646.63;;;28.28;88.98
12879;BME280;20617;49.476;10.986;2023-07-09T07:43:44;98648.28;;;28.37;88.49
12879;BME280;20617;49.476;10.986;2023-07-09T07:45:49;98649.81;;;28.48;88.01
12879;BME280;20617;49.476;10.986;2023-07-09T07:47:57;98646.97;;;28.57;88.02
12879;BME280;20617;49.476;10.986;2023-07-09T07:50:02;98652.31;;;28.65;87.86
12879;BME280;20617;49.476;10.986;2023-07-09T07:52:07;98645.75;;;28.68;87.11
12879;BME280;20617;49.476;10.986;2023-07-09T07:54:12;98649.09;;;28.78;86.39
12879;BME280;20617;49.476;10.986;2023-07-09T07:56:20;98647.91;;;28.81;86.80
12879;BME280;20617;49.476;10.986;2023-07-09T07:58:27;98645.38;;;28.87;85.88
12879;BME280;20617;49.476;10.986;2023-07-09T08:00:34;98644.22;;;28.82;86.33
12879;BME280;20617;49.476;10.986;2023-07-09T08:02:42;98640.56;;;28.83;87.30
12879;BME280;20617;49.476;10.986;2023-07-09T08:04:49;98638.16;;;28.96;86.25
12879;BME280;20617;49.476;10.986;2023-07-09T08:06:55;98638.50;;;29.09;84.60
12879;BME280;20617;49.476;10.986;2023-07-09T08:09:00;98635.25;;;29.22;83.73
12879;BME280;20617;49.476;10.986;2023-07-09T08:11:06;98638.72;;;29.31;82.75
12879;BME280;20617;49.476;10.986;2023-07-09T08:13:12;98634.47;;;29.45;82.01
12879;BME280;20617;49.476;10.986;2023-07-09T08:15:17;98639.91;;;29.60;81.15
12879;BME280;20617;49.476;10.986;2023-07-09T08:17:23;98626.84;;;29.65;79.84
12879;BME280;20617;49.476;10.986;2023-07-09T08:19:28;98630.47;;;29.72;78.54
12879;BME280;20617;49.476;10.986;2023-07-09T08:21:35;98626.75;;;29.73;77.37
12879;BME280;20617;49.476;10.986;2023-07-09T08:23:40;98629.03;;;29.84;77.45
12879;BME280;20617;49.476;10.986;2023-07-09T08:25:55;98620.56;;;29.95;76.49
12879;BME280;20617;49.476;10.986;2023-07-09T08:28:03;98629.59;;;30.03;73.96
12879;BME280;20617;49.476;10.986;2023-07-09T08:30:09;98625.25;;;30.16;73.02
12879;BME280;20617;49.476;10.986;2023-07-09T08:32:14;98623.06;;;30.20;71.25
12879;BME280;20617;49.476;10.986;2023-07-09T08:34:17;98621.19;;;30.29;71.16
12879;BME280;20617;49.476;10.986;2023-07-09T08:36:22;98616.56;;;30.37;68.12
12879;BME280;20617;49.476;10.986;2023-07-09T08:38:33;98620.66;;;30.48;68.29
12879;BME280;20617;49.476;10.986;2023-07-09T08:40:40;98607.69;;;30.52;67.78
12879;BME280;20617;49.476;10.986;2023-07-09T08:42:47;98612.97;;;30.60;67.19
12879;BME280;20617;49.476;10.986;2023-07-09T08:45:16;98607.97;;;30.72;65.92
12879;BME280;20617;49.476;10.986;2023-07-09T08:47:33;98610.06;;;30.84;64.77
12879;BME280;20617;49.476;10.986;2023-07-09T08:49:46;98610.34;;;30.89;66.58
12879;BME280;20617;49.476;10.986;2023-07-09T08:51:53;98616.47;;;30.98;66.38
12879;BME280;20617;49.476;10.986;2023-07-09T08:54:04;98609.13;;;31.07;65.44
12879;BME280;20617;49.476;10.986;2023-07-09T08:56:15;98609.94;;;31.07;63.46
12879;BME280;20617;49.476;10.986;2023-07-09T08:58:25;98616.16;;;31.08;59.89
12879;BME280;20617;49.476;10.986;2023-07-09T09:00:33;98617.28;;;31.13;59.23
12879;BME280;20617;49.476;10.986;2023-07-09T09:02:46;98616.97;;;31.23;58.14
12879;BME280;20617;49.476;10.986;2023-07-09T09:04:51;98611.88;;;31.28;58.53
12879;BME280;20617;49.476;10.986;2023-07-09T09:07:06;98611.78;;;31.37;57.18
12879;BME280;20617;49.476;10.986;2023-07-09T09:09:22;98616.41;;;31.43;56.55
12879;BME280;20617;49.476;10.986;2023-07-09T09:11:40;98620.59;;;31.30;56.54
12879;BME280;20617;49.476;10.986;2023-07-09T09:13:52;98613.78;;;31.34;57.09
12879;BME280;20617;49.476;10.986;2023-07-09T09:16:05;98611.94;;;31.50;55.75
12879;BME280;20617;49.476;10.986;2023-07-09T09:18:22;98611.44;;;31.61;53.33
12879;BME280;20617;49.476;10.986;2023-07-09T09:20:28;98612.78;;;31.72;53.28
12879;BME280;20617;49.476;10.986;2023-07-09T09:22:40;98612.19;;;31.76;51.80
12879;BME280;20617;49.476;10.986;2023-07-09T09:24:58;98604.00;;;31.85;52.16
12879;BME280;20617;49.476;10.986;2023-07-09T09:27:08;98604.56;;;31.95;52.03
12879;BME280;20617;49.476;10.986;2023-07-09T09:29:14;98603.41;;;32.04;50.57
12879;BME280;20617;49.476;10.986;2023-07-09T09:31:20;98612.16;;;32.13;50.92
12879;BME280;20617;49.476;10.986;2023-07-09T09:33:36;98609.91;;;32.16;49.51
12879;BME280;20617;49.476;10.986;2023-07-09T09:35:43;98605.44;;;32.23;49.34
12879;BME280;20617;49.476;10.986;2023-07-09T09:37:53;98601.31;;;32.28;49.02
12879;BME280;20617;49.476;10.986;2023-07-09T09:40:09;98597.66;;;32.35;48.66
12879;BME280;20617;49.476;10.986;2023-07-09T09:42:19;98601.56;;;32.33;46.83
12879;BME280;20617;49.476;10.986;2023-07-09T09:44:28;98609.38;;;32.28;46.54
12879;BME280;20617;49.476;10.986;2023-07-09T09:46:39;98601.78;;;32.10;47.35
12879;BME280;20617;49.476;10.986;2023-07-09T09:48:44;98599.28;;;32.08;47.71
12879;BME280;20617;49.476;10.986;2023-07-09T09:50:51;98601.97;;;32.08;47.67
12879;BME280;20617;49.476;10.986;2023-07-09T09:52:59;98603.53;;;32.17;47.85
12879;BME280;20617;49.476;10.986;2023-07-09T09:55:13;98604.56;;;32.23;47.57
12879;BME280;20617;49.476;10.986;2023-07-09T09:57:22;98601.56;;;32.33;46.72
12879;BME280;20617;49.476;10.986;2023-07-09T09:59:32;98604.72;;;32.43;46.21
12879;BME280;20617;49.476;10.986;2023-07-09T10:01:40;98600.44;;;32.49;44.99
12879;BME280;20617;49.476;10.986;2023-07-09T10:03:50;98598.03;;;32.60;44.63
12879;BME280;20617;49.476;10.986;2023-07-09T10:05:57;98598.09;;;32.67;44.48
12879;BME280;20617;49.476;10.986;2023-07-09T10:08:08;98593.97;;;32.71;43.29
12879;BME280;20617;49.476;10.986;2023-07-09T10:10:20;98591.94;;;32.80;43.37
12879;BME280;20617;49.476;10.986;2023-07-09T10:12:40;98585.97;;;32.84;42.27
12879;BME280;20617;49.476;10.986;2023-07-09T10:14:51;98588.69;;;32.91;42.37
12879;BME280;20617;49.476;10.986;2023-07-09T10:17:05;98582.94;;;33.01;41.72
12879;BME280;20617;49.476;10.986;2023-07-09T10:19:24;98581.13;;;33.08;41.02
12879;BME280;20617;49.476;10.986;2023-07-09T10:21:33;98578.03;;;33.18;40.38
12879;BME280;20617;49.476;10.986;2023-07-09T10:23:47;98578.69;;;33.26;40.34
12879;BME280;20617;49.476;10.986;2023-07-09T10:26:06;98582.84;;;33.29;40.31
12879;BME280;20617;49.476;10.986;2023-07-09T10:31:03;98582.22;;;33.33;39.39
12879;BME280;20617;49.476;10.986;2023-07-09T10:33:12;98580.75;;;33.24;39.71
12879;BME280;20617;49.476;10.986;2023-07-09T10:35:22;98577.81;;;33.19;39.21
12879;BME280;20617;49.476;10.986;2023-07-09T10:37:45;98575.56;;;33.23;38.56
12879;BME280;20617;49.476;10.986;2023-07-09T10:39:58;98574.53;;;33.30;38.92
12879;BME280;20617;49.476;10.986;2023-07-09T10:42:21;98577.47;;;33.29;38.33
12879;BME280;20617;49.476;10.986;2023-07-09T10:44:31;98578.28;;;33.36;38.78
12879;BME280;20617;49.476;10.986;2023-07-09T10:46:40;98574.78;;;33.42;37.91
12879;BME280;20617;49.476;10.986;2023-07-09T10:48:49;98571.25;;;33.28;37.96
12879;BME280;20617;49.476;10.986;2023-07-09T10:50:56;98570.19;;;33.36;38.13
12879;BME280;20617;49.476;10.986;2023-07-09T10:53:09;98565.84;;;33.28;37.88
12879;BME280;20617;49.476;10.986;2023-07-09T10:55:20;98561.44;;;33.21;37.82
12879;BME280;20617;49.476;10.986;2023-07-09T10:57:38;98554.75;;;33.10;38.21
12879;BME280;20617;49.476;10.986;2023-07-09T10:59:48;98556.78;;;33.01;38.63
12879;BME280;20617;49.476;10.986;2023-07-09T11:01:56;98553.22;;;32.94;38.61
12879;BME280;20617;49.476;10.986;2023-07-09T11:04:05;98556.09;;;32.86;38.33